Lifting Database

Team

Boston Latin School

Lifters

Results

Competition Lifter Placing Division Weight Squat Bench press Deadlift Total Points
03/09/2024 14th Annual Ryan Moore New England High School Championships Tiana Nguyen 4. R-JV -67.5 62.5 52.5 60 -62.5 -37.5 37.5 42.5 62.5 -67.5 -67.5 165 178.33
03/09/2024 14th Annual Ryan Moore New England High School Championships Areesh Mehtab 3. R-JV -60 59.1 -60 60 67.5 35 40 45 87.5 -92.5 95 207.5 177.34
03/09/2024 14th Annual Ryan Moore New England High School Championships Arthur Pereira 3. R-V -60 56.8 70 77.5 85 42.5 47.5 52.5 87.5 92.5 100 237.5 209.96
03/09/2024 14th Annual Ryan Moore New England High School Championships Jordan Cutler 2. R-V -75 71.7 77.5 82.5 90 37.5 40 42.5 92.5 97.5 105 237.5 237.09
03/09/2024 14th Annual Ryan Moore New England High School Championships James Emery 2. R-V -140 128.6 -80 80 85 57.5 62.5 -65 112.5 117.5 125 272.5 153.09
03/09/2024 14th Annual Ryan Moore New England High School Championships Jack Sawyers 4. R-V -67.5 63.4 -80 80 87.5 40 42.5 45 105 110 117.5 250 201.94
03/09/2024 14th Annual Ryan Moore New England High School Championships Sammi Zheng 2. R-JV -75 73.8 65 70 75 40 42.5 -45 70 75 85 202.5 199.00
03/09/2024 14th Annual Ryan Moore New England High School Championships Aiden Nguyen 4. R-V -60 59.3 60 65 72.5 50 -55 55 92.5 100 -110 227.5 193.89
03/09/2024 14th Annual Ryan Moore New England High School Championships Andrew Cederbaum 3. R-JV -82.5 80 105 112.5 120 60 65 -70 125 132.5 140 325 224.10
03/09/2024 14th Annual Ryan Moore New England High School Championships Vivian Wong 4. R-JV -52 50.9 -47.5 47.5 -55 27.5 30 35 55 -60 -60 137.5 170.24
03/09/2024 14th Annual Ryan Moore New England High School Championships Noah Liu 6. R-JV -67.5 65.5 87.5 92.5 97.5 52.5 -57.5 -57.5 102.5 107.5 115 265 208.81
03/09/2024 14th Annual Ryan Moore New England High School Championships Brian Wong 7. R-V -75 72.1 95 -110 -110 70 75 -80 122.5 127.5 135 305 224.64
03/09/2024 14th Annual Ryan Moore New England High School Championships Michelle Du 3. R-JV -52 49.5 55 62.5 67.5 20 -25 -25 52.5 57.5 65 152.5 192.46
03/09/2024 14th Annual Ryan Moore New England High School Championships Mishy Huang 1. R-JV -75 74.3 57.5 -62.5 -72.5 37.5 -42.5 42.5 80 85 90 190 161.56
03/09/2024 14th Annual Ryan Moore New England High School Championships Allan Tran 3. R-JV -52 49.4 62.5 67.5 70 -37.5 37.5 -40 87.5 92.5 97.5 205 206.38
03/09/2024 14th Annual Ryan Moore New England High School Championships Mairead O'Donnell 4. R-V -67.5 61.5 52.5 57.5 62.5 35 37.5 40 70 75 80 182.5 199.21
03/09/2024 14th Annual Ryan Moore New England High School Championships Emily Polcaro 1. R-V -67.5 62.3 117.5 -120 120 52.5 55 57.5 127.5 132.5 -135 310 335.70
03/09/2024 14th Annual Ryan Moore New England High School Championships Simon Brown 5. R-V -75 73.2 140 147.5 -152.5 82.5 87.5 92.5 162.5 170 180 420 306.24
03/09/2024 14th Annual Ryan Moore New England High School Championships Ena Nealon 1. R-V -52 51.6 70 75 -80 35 37.5 -40 77.5 -82.5 -82.5 190 233.00
03/09/2024 14th Annual Ryan Moore New England High School Championships Christian Le 4. R-V -82.5 79.3 -167.5 175 177.5 87.5 90 -95 187.5 195 -197.5 462.5 320.70
03/09/2024 14th Annual Ryan Moore New England High School Championships Aina Nguyen 2. R-V -60 56.9 102.5 107.5 -112.5 50 -55 -55 100 107.5 115 272.5 312.56
03/09/2024 14th Annual Ryan Moore New England High School Championships Kate Lincecum 1. R-V -60 56.5 112.5 117.5 -120 62.5 67.5 -70 130 137.5 142.5 327.5 377.61
03/09/2024 14th Annual Ryan Moore New England High School Championships Katelyn Tran 1. R-JV -67.5 66.8 -110 110 117.5 37.5 40 42.5 100 107.5 115 275 285.63
03/09/2024 14th Annual Ryan Moore New England High School Championships Alex Lam 5. R-V -82.5 81.6 -155 155 162.5 82.5 87.5 -90 195 202.5 205 455 310.15
03/09/2024 14th Annual Ryan Moore New England High School Championships Alexis Dakin 1. R-JV -52 50.5 57.5 62.5 67.5 37.5 40 42.5 82.5 90 97.5 207.5 258.17
03/09/2024 14th Annual Ryan Moore New England High School Championships Dinh Nguyen 4. R-JV -67.5 63.9 100 107.5 117.5 52.5 57.5 60 127.5 137.5 147.5 325 260.93
03/09/2024 14th Annual Ryan Moore New England High School Championships Steven Le 4. R-JV -52 45.9 55 60 67.5 40 45 -47.5 70 77.5 85 197.5 214.51
03/09/2024 14th Annual Ryan Moore New England High School Championships Katia Inezian 3. R-JV -48 47.5 50 57.5 -62.5 27.5 30 32.5 55 60 65 155 201.56
03/09/2024 14th Annual Ryan Moore New England High School Championships Claudia Belile 3. R-JV -56 55.3 50 57.5 62.5 32.5 35 40 60 65 72.5 175 204.55
03/09/2024 14th Annual Ryan Moore New England High School Championships Fabiana Polcaro 2. R-JV -52 51.3 67.5 75 -82.5 35 40 42.5 80 87.5 90 207.5 255.33
03/09/2024 14th Annual Ryan Moore New England High School Championships Lily Huynh 3. R-V -60 57.1 80 -85 85 35 37.5 40 82.5 -90 92.5 217.5 248.90
03/09/2024 14th Annual Ryan Moore New England High School Championships Catherine Zee 2. R-V -67.5 61.1 77.5 82.5 87.5 40 42.5 45 85 90 97.5 230 252.08
03/09/2024 14th Annual Ryan Moore New England High School Championships Thomas Temple 11. R-V -82.5 76.9 95 105 137.5 60 65 67.5 -125 135 155 360 254.24
03/09/2024 14th Annual Ryan Moore New England High School Championships Wendy Ruan 1. R-V -48 47.8 67.5 72.5 80 32.5 37.5 42.5 70 77.5 85 207.5 268.59
03/09/2024 14th Annual Ryan Moore New England High School Championships Paris Do 1. R-JV -48 44.1 62.5 67.5 70 27.5 30 32.5 87.5 95 97.5 200 274.99
03/09/2024 14th Annual Ryan Moore New England High School Championships Teddy Stein 4. R-JV -82.5 75.8 100 107.5 115 25 45 57.5 130 137.5 142.5 315 224.47
03/09/2024 14th Annual Ryan Moore New England High School Championships Olurimi Alofe 1. R-V -90 84.8 90 97.5 100 50 55 -57.5 105 110 120 275 251.98
03/09/2024 14th Annual Ryan Moore New England High School Championships Aidan Tran 6. R-V -82.5 79.9 157.5 -165 165 -75 80 82.5 157.5 165 -170 412.5 284.65
03/09/2024 14th Annual Ryan Moore New England High School Championships Angelina Moy 4. R-V -60 58.5 72.5 77.5 -80 30 32.5 35 70 75 80 192.5 216.86
03/09/2024 14th Annual Ryan Moore New England High School Championships Ethan Ocwieja 3. R-JV -67.5 67.3 112.5 120 127.5 62.5 67.5 -72.5 137.5 145 152.5 347.5 268.41
03/09/2024 14th Annual Ryan Moore New England High School Championships Benson Truong 1. R-JV -67.5 64.3 127.5 135 140 70 75 -80 140 147.5 152.5 367.5 293.65
03/09/2024 14th Annual Ryan Moore New England High School Championships Kevin Nguyen 3. R-JV -75 72.8 115 122.5 130 70 75 -80 125 132.5 137.5 342.5 250.52
03/09/2024 14th Annual Ryan Moore New England High School Championships Lyra Kirouac 3. R-V -48 46.7 45 50 52.5 -30 30 -32.5 70 77.5 82.5 165 217.44
03/09/2024 14th Annual Ryan Moore New England High School Championships Christina Nguyen 3. R-V -67.5 60.7 85 90 -97.5 37.5 -40 -40 82.5 -85 85 212.5 233.86
03/09/2024 14th Annual Ryan Moore New England High School Championships Emmanuella Gustave-Paul 2. R-JV -48 44.9 -57.5 62.5 -67.5 30 32.5 -35 90 -97.5 97.5 192.5 261.29
03/09/2024 14th Annual Ryan Moore New England High School Championships Tyler Nguyen 0. R-V -75 73.6 -95 -102.5 -102.5 57.5 -62.5 -62.5 107.5 112.5 117.5 0 0.00
03/09/2024 14th Annual Ryan Moore New England High School Championships Eleanor Johnson 3. R-V -75 72.6 60 65 -70 35 -37.5 -37.5 62.5 67.5 -72.5 167.5 166.01
03/09/2024 14th Annual Ryan Moore New England High School Championships Alex Ahmed 2. R-V -67.5 65.7 105 110 115 62.5 67.5 70 127.5 132.5 140 325 255.51
03/09/2024 14th Annual Ryan Moore New England High School Championships Aidan Mak 1. R-JV -52 51.6 95 100 107.5 60 -65 -65 132.5 137.5 145 312.5 301.52
03/09/2024 14th Annual Ryan Moore New England High School Championships Edison Wei 3. R-V -56 56 -90 95 105 55 60 -65 115 125 135 300 268.52
03/09/2024 14th Annual Ryan Moore New England High School Championships CJ Klinman 2. R-JV -56 55.9 65 70 75 37.5 40 -42.5 77.5 85 95 210 243.85
03/09/2024 14th Annual Ryan Moore New England High School Championships Thao Pham 1. R-V -56 52.6 55 60 -65 27.5 30 32.5 85 -90 -90 177.5 214.78
03/09/2024 14th Annual Ryan Moore New England High School Championships Ayman Amin 2. R-V -60 57.5 87.5 95 -100 52.5 55 57.5 107.5 115 120 272.5 238.36
03/09/2024 14th Annual Ryan Moore New England High School Championships Leo Truong 1. R-V -110 102.1 160 167.5 -175 90 95 97.5 187.5 195 200 465 283.69
03/09/2024 14th Annual Ryan Moore New England High School Championships Suyen Chiang 2. R-V -48 47.1 60 65 -70 25 27.5 -30 72.5 80 87.5 180 235.53
03/09/2024 14th Annual Ryan Moore New England High School Championships Darby Linfoot 3. R-JV -67.5 63.8 70 75 -80 30 32.5 -35 77.5 85 90 197.5 210.90
03/09/2024 14th Annual Ryan Moore New England High School Championships Ugonna Njoku 1. R-JV 100+ 102.4 90 97.5 102.5 37.5 -42.5 47.5 100 110 120 270 228.36
03/09/2024 14th Annual Ryan Moore New England High School Championships Sebastian Inezian 5. R-V -90 86 165 170 175 80 85 -90 177.5 -182.5 182.5 442.5 293.05
03/09/2024 14th Annual Ryan Moore New England High School Championships Ava Vu 1. R-V -75 73.3 102.5 110 -112.5 40 42.5 -45 105 110 -115 262.5 258.91
03/09/2024 14th Annual Ryan Moore New England High School Championships Vincent Zhou 4. R-V -100 95.4 140 147.5 152.5 82.5 90 -92.5 160 167.5 172.5 415 260.95
03/09/2024 14th Annual Ryan Moore New England High School Championships Ashley Rodríguez 1. R-V 100+ 110.1 92.5 97.5 105 35 40 -45 100 107.5 -115 252.5 208.07
03/09/2024 14th Annual Ryan Moore New England High School Championships Halina Nguyen 2. R-JV -67.5 61.3 62.5 -67.5 70 35 40 42.5 77.5 85 97.5 210 229.81
02/10/2024 Wolfpack High School Open James Emery 1. R-V -140 129.5 75 85 90 50 52.5 60 100 110 117.5 267.5 149.96
02/10/2024 Wolfpack High School Open Arthur Pereira 1. R-V -56 55.5 62.5 70 77.5 40 45 -50 77.5 85 92.5 215 193.97
02/10/2024 Wolfpack High School Open Jordan Cutler 3. R-V -75 70.9 70 75 82.5 37.5 40 -42.5 90 97.5 102.5 225 225.92
02/10/2024 Wolfpack High School Open Jack Sawyers 2. R-V -60 58.8 70 77.5 85 37.5 42.5 -45 100 107.5 112.5 240 205.99
02/10/2024 Wolfpack High School Open Aiden Nguyen 3. R-V -60 58 55 60 65 50 52.5 55 85 90 97.5 217.5 188.99
02/10/2024 Wolfpack High School Open Andrew Cederbaum 2. R-JV -82.5 78.3 -102.5 102.5 112.5 -57.5 57.5 62.5 125 132.5 -137.5 307.5 214.77
02/10/2024 Wolfpack High School Open Noah Liu 7. R-JV -67.5 66.7 80 87.5 92.5 50 -55 55 -100 102.5 107.5 255 198.25
02/10/2024 Wolfpack High School Open Michelle Du 2. R-JV -52 48.7 45 52.5 60 -20 20 25 52.5 57.5 -62.5 142.5 182.10
02/10/2024 Wolfpack High School Open Allan Tran 1. R-JV -52 50.4 55 60 65 37.5 40 -42.5 82.5 87.5 95 200 197.41
02/10/2024 Wolfpack High School Open Mairead O'Donnell 4. R-V -60 58.9 57.5 -62.5 32.5 35 37.5 67.5 70 72.5 167.5 187.98
02/10/2024 Wolfpack High School Open Tiana Nguyen 2. R-JV -67.5 62.7 55 60 -65 37.5 40 -42.5 -60 60 62.5 162.5 175.37
02/10/2024 Wolfpack High School Open Simon Brown 6. R-V -75 71.9 137.5 142.5 147.5 75 80 87.5 162.5 167.5 170 405 298.71
02/10/2024 Wolfpack High School Open Ena Nealon 1. R-V -52 51.5 67.5 75 -80 32.5 35 37.5 75 82.5 85 197.5 242.52
02/10/2024 Wolfpack High School Open Andy Tran 2. R-V -82.5 81.7 165 170 92.5 100 102.5 182.5 190 462.5 315.04
02/10/2024 Wolfpack High School Open Christian Le 3. R-V -75 74.7 165 170 175 -90 90 185 192.5 -200 457.5 329.06
02/10/2024 Wolfpack High School Open Eleanor Johnson 4. R-V -75 73.3 57.5 65 70 32.5 -37.5 37.5 62.5 67.5 -72.5 175 172.54
02/10/2024 Wolfpack High School Open Alexis Dakin 2. R-V -52 51.1 57.5 -65 -65 37.5 40 -42.5 80 85 90 187.5 231.35
02/10/2024 Wolfpack High School Open Aidan Tran 4. R-V -82.5 78.5 155 160 165 75 80 -82.5 155 160 -167.5 405 282.44
02/10/2024 Wolfpack High School Open Ruby Dai 2. R-V -75 73.8 75 82.5 87.5 -42.5 42.5 -47.5 97.5 105 -110 235 230.86
02/10/2024 Wolfpack High School Open Paris Do 1. R-JV -44 44 60 -65 -70 27.5 -30 30 85 92.5 -97.5 182.5 251.59
02/10/2024 Wolfpack High School Open Olurimi Alofe 1. R-V -90 85.8 77.5 85 92.5 47.5 52.5 -57.5 97.5 105 112.5 257.5 234.59
02/10/2024 Wolfpack High School Open Angelina Moy 3. R-V -60 59.4 70 75 80 27.5 30 32.5 67.5 72.5 77.5 190 211.97
02/10/2024 Wolfpack High School Open Christina Nguyen 1. R-V -60 59.3 80 85 -92.5 37.5 40 -45 82.5 87.5 92.5 217.5 242.91
02/10/2024 Wolfpack High School Open Xavier Chodkowski 1. R-JV -100 94.6 132.5 142.5 -147.5 92.5 97.5 -100 180 -187.5 -187.5 420 265.07
02/10/2024 Wolfpack High School Open Emmanuella Gustave-Paul 1. R-JV -48 44.5 57.5 62.5 -65 27.5 32.5 35 85 92.5 97.5 195 266.27
02/10/2024 Wolfpack High School Open Tyler Nguyen 10. R-V -75 72.7 82.5 90 97.5 55 57.5 60 100 107.5 115 272.5 199.50
02/10/2024 Wolfpack High School Open Phuc Nguyen 1. R-JV -60 59.7 62.5 67.5 72.5 27.5 -30 30 70 75 80 182.5 203.06
02/10/2024 Wolfpack High School Open Thao Pham 1. R-V -56 53.1 52.5 60 -67.5 27.5 30 -32.5 82.5 87.5 92.5 182.5 219.40
02/10/2024 Wolfpack High School Open Leo Truong 1. R-V -110 100.3 165 -170 170 90 95 -97.5 -185 185 195 460 282.83
02/10/2024 Wolfpack High School Open Ayman Amin 1. R-V -60 57.9 80 85 92.5 50 52.5 55 102.5 110 115 262.5 228.26
02/10/2024 Wolfpack High School Open Darby Linfoot 1. R-JV -67.5 63.9 65 72.5 -75 27.5 30 -35 75 80 85 187.5 199.93
02/10/2024 Wolfpack High School Open Sebastian Inezian 2. R-V -90 84.4 165 170 -172.5 72.5 77.5 82.5 177.5 182.5 -187.5 435 290.95
02/10/2024 Wolfpack High School Open Ava Vu 1. R-V -75 73.1 100 107.5 112.5 40 42.5 -47.5 102.5 110 115 270 266.60
02/10/2024 Wolfpack High School Open Ashley Rodríguez 1. R-V 100+ 111.2 87.5 95 100 35 -40 -40 90 100 105 240 197.12
02/10/2024 Wolfpack High School Open Vincent Zhou 2. R-V -100 93.2 122.5 132.5 142.5 80 87.5 -90 140 150 160 390 247.88
02/10/2024 Wolfpack High School Open Lily Huynh 2. R-V -60 56.5 -77.5 77.5 82.5 32.5 -37.5 37.5 -80 82.5 90 210 242.13
02/10/2024 Wolfpack High School Open Dinh Nguyen 2. R-JV -60 59.4 90 97.5 105 52.5 55 -57.5 130 -137.5 -137.5 290 246.81
02/10/2024 Wolfpack High School Open Katia Inezian 2. R-JV -48 46.7 47.5 55 60 25 27.5 30 57.5 62.5 67.5 157.5 207.40
02/10/2024 Wolfpack High School Open Catherine Zee 1. R-V -67.5 60.9 70 75 82.5 37.5 42.5 -47.5 80 87.5 92.5 217.5 238.87
02/10/2024 Wolfpack High School Open Fabiana Polcaro 1. R-JV -52 50.7 65 72.5 -77.5 32.5 35 37.5 67.5 75 82.5 192.5 238.84
02/10/2024 Wolfpack High School Open Wendy Ruan 1. R-V -48 46.9 62.5 70 75 30 35 -40 62.5 70 77.5 187.5 246.12
01/20/2024 Sumus Primi Mika Liu 2. R-JV -44 42.8 37.5 45 47.5 20 -25 -27.5 45 52.5 55 122.5 172.37
01/20/2024 Sumus Primi Aiden Nguyen 1. R-V -60 58.4 -50 55 57.5 45 50 -55 85 90 -92.5 197.5 170.49
01/20/2024 Sumus Primi Andrew Cederbaum 1. R-JV -82.5 76.5 97.5 102.5 107.5 57.5 -60 60 115 125 132.5 300 212.55
01/20/2024 Sumus Primi Noah Liu 4. R-JV -67.5 66 72.5 80 85 45 50 52.5 -100 100 110 247.5 194.03
01/20/2024 Sumus Primi Sadie Bornhorst 1. R-V -90 84.4 -40 42.5 50 27.5 -32.5 32.5 80 85 -87.5 167.5 153.78
01/20/2024 Sumus Primi Sammi Zheng 2. R-JV -75 73.9 50 57.5 65 35 40 42.5 70 -75 75 182.5 179.15
01/20/2024 Sumus Primi David Mai 1. R-JV -56 54.4 75 82.5 -85 52.5 -57.5 -57.5 97.5 107.5 102.5 242.5 222.75
01/20/2024 Sumus Primi Vivian Wong 1. R-JV -52 49.8 37.5 45 -50 27.5 30 -32.5 45 52.5 57.5 132.5 166.50
01/20/2024 Sumus Primi Michelle Du 2. R-JV -52 48.1 -45 45 50 20 -25 45 52.5 57.5 127.5 164.28
01/20/2024 Sumus Primi Allan Tran 1. R-JV -52 49.9 45 52.5 60 32.5 37.5 -42.5 75 82.5 87.5 185 184.40
01/20/2024 Sumus Primi Brian Wong 1. R-V -75 68.5 87.5 -95 97.5 -70 72.5 75 100 110 125 297.5 227.01
01/20/2024 Sumus Primi Henry Celli 3. R-JV -67.5 66.6 67.5 75 80 50 -52.5 52.5 110 115 120 252.5 196.55
01/20/2024 Sumus Primi Mairead O'Donnell 1. R-V -60 59.6 52.5 57.5 60 27.5 32.5 35 80 85 -87.5 180 200.38
01/20/2024 Sumus Primi Mishy Huang 1. R-JV -82.5 75.6 55 65 72.5 -30 32.5 37.5 65 72.5 80 190 159.95
01/20/2024 Sumus Primi Tiana Nguyen 2. R-JV -67.5 63.2 47.5 55 60 35 37.5 40 50 57.5 60 160 171.75
01/20/2024 Sumus Primi Johnny Xu 2. R-JV -67.5 66 72.5 82.5 87.5 67.5 72.5 75 100 107.5 115 277.5 217.43
01/20/2024 Sumus Primi Arthur Pereira 2. R-V -60 57.3 57.5 62.5 67.5 37.5 42.5 45 75 80 82.5 195 171.08
01/20/2024 Sumus Primi Areesh Mehtab 1. R-JV -60 58.4 -65 65 67.5 32.5 -37.5 37.5 85 92.5 97.5 202.5 174.93
01/20/2024 Sumus Primi Jordan Cutler 1. R-V -75 70.9 62.5 70 75 37.5 -42.5 -42.5 85 92.5 97.5 210 210.94
01/20/2024 Sumus Primi Sami Mansour 2. R-JV -82.5 79.4 57.5 65 70 55 62.5 -65 82.5 92.5 100 232.5 161.10
01/20/2024 Sumus Primi Jack Sawyers 1. R-V -67.5 62.9 65 70 77.5 37.5 42.5 -45 92.5 100 107.5 227.5 185.01
01/20/2024 Sumus Primi Matthew Mai 1. R-JV -67.5 61.4 85 -95 100 60 -65 -67.5 125 132.5 137.5 297.5 246.45
01/20/2024 Sumus Primi Emmanuella Gustave-Paul 1. R-JV -44 43.9 52.5 57.5 62.5 25 27.5 32.5 80 87.5 92.5 187.5 258.70
01/20/2024 Sumus Primi Jasmine Carson 2. R-JV -56 54.6 37.5 -42.5 42.5 25 27.5 -30 55 57.5 -60 127.5 150.40
01/20/2024 Sumus Primi Darby Linfoot 1. R-JV -67.5 62.5 65 70 -72.5 25 30 -32.5 72.5 77.5 85 185 200.04
01/20/2024 Sumus Primi Kady Dienta 3. R-JV -56 53.4 35 40 45 20 -25 50 55 60 125 149.69
01/20/2024 Sumus Primi CJ Klinman 1. R-JV -60 56.3 52.5 60 -62.5 35 37.5 40 70 77.5 85 185 213.68
01/20/2024 Sumus Primi Katia Inezian 1. R-JV -48 46.1 40 47.5 52.5 20 25 27.5 50 55 60 140 186.14
01/20/2024 Sumus Primi Halina Nguyen 2. R-JV -60 59.2 52.5 57.5 -65 -32.5 32.5 35 80 85 92.5 185 206.95
01/20/2024 Sumus Primi Claudia Belile 1. R-JV -56 54.4 37.5 45 -50 27.5 32.5 -37.5 52.5 60 67.5 145 171.47
03/13/2022 12th Annual Ryan Moore New England States High School Championships Marvin Hoang 4. R-V -67.5 62.6 82.5 87.5 92.5 50 55 -57.5 105 -112.5 117.5 265 216.13
03/13/2022 12th Annual Ryan Moore New England States High School Championships Emily Crown 1. R-V -52 50.1 70 75 80 50 52.5 55 90 97.5 102.5 237.5 297.08
03/13/2022 12th Annual Ryan Moore New England States High School Championships Christian Le 3. R-JV -75 69.5 110 117.5 125 60 65 -67.5 132.5 -140 140 330 249.07
03/13/2022 12th Annual Ryan Moore New England States High School Championships Isaac Brown 4. R-V -75 70.9 125 130 137.5 -80 80 -90 160 172.5 -187.5 390 290.39
03/13/2022 12th Annual Ryan Moore New England States High School Championships Geoffrey Zou 1. R-V -56 54.8 110 117.5 125 65 70 75 -125 125 -135 325 296.56
03/13/2022 12th Annual Ryan Moore New England States High School Championships Billy Trinh 2. R-V -100 91.9 82.5 100 120 77.5 85 -92.5 140 150 160 365 233.58
03/13/2022 12th Annual Ryan Moore New England States High School Championships Kate Lincecum 1. R-V -56 54.8 85 92.5 100 52.5 57.5 -60 112.5 120 127.5 285 335.16
03/13/2022 12th Annual Ryan Moore New England States High School Championships Jason Kuang 2. R-V -90 87.7 97.5 105 112.5 55 -62.5 -62.5 -90 95 102.5 270 176.89
03/13/2022 12th Annual Ryan Moore New England States High School Championships Ryan Nguyen 1. R-V -52 51.2 115 122.5 130 70 72.5 -75 160 167.5 172.5 375 364.80
03/13/2022 12th Annual Ryan Moore New England States High School Championships Alex Lam 5. R-JV -82.5 77.7 102.5 110 112.5 67.5 72.5 -77.5 135 142.5 150 335 235.04
03/13/2022 12th Annual Ryan Moore New England States High School Championships Helena Huynh 2. R-V -52 48.1 80 85 87.5 30 32.5 -35 80 85 90 210 270.75
03/13/2022 12th Annual Ryan Moore New England States High School Championships Simon Brown 2. R-JV -67.5 67.5 100 -105 110 65 70 72.5 122.5 130 137.5 320 246.69
03/13/2022 12th Annual Ryan Moore New England States High School Championships Andy Tran 3. R-JV -82.5 76.1 -117.5 117.5 130 67.5 75 -80 147.5 155 -160 360 255.94
02/12/2022 Wolfpack High School Open Isaac Brown 3. R-V -75 70.6 115 122.5 130 75 82.5 -87.5 150 157.5 165 377.5 281.90
02/12/2022 Wolfpack High School Open Kate Lincecum 1. R-V -56 53.7 -82.5 82.5 -92.5 50 -52.5 52.5 95 110 120 255 304.02
02/12/2022 Wolfpack High School Open Jason Kuang 0. R-V -90 86.9 -87.5 -87.5 -87.5 52.5 55 57.5 85 92.5 100 0 0.00
02/12/2022 Wolfpack High School Open Ryan Nguyen 1. R-JV -52 51.4 110 -117.5 120 67.5 70 72.5 155 162.5 -170 355 343.80
02/12/2022 Wolfpack High School Open Alex Lam 2. R-JV -82.5 75.4 90 97.5 105 65 70 72.5 115 122.5 130 307.5 219.86
02/12/2022 Wolfpack High School Open Helena Huynh 1. R-V -48 48 70 77.5 82.5 27.5 30 -32.5 -70 70 77.5 190 245.19
02/12/2022 Wolfpack High School Open Andy Tran 1. R-JV -82.5 76.3 107.5 -117.5 125 65 70 -75 135 147.5 155 350 248.38
02/12/2022 Wolfpack High School Open Christian Le 2. R-JV -75 68.9 102.5 110 117.5 60 -65 -65 120 130 137.5 315 239.25
02/12/2022 Wolfpack High School Open Emily Crown 1. R-V -52 51 65 70 75 45 47.5 52.5 82.5 90 97.5 225 278.00
03/01/2020 10th Annual Ryan Moore New England States High School Championships Crystal Liu 1. R-V 84+ 84 102.5 107.5 115 40 45 -47.5 125 132.5 140 300 459.92
03/01/2020 10th Annual Ryan Moore New England States High School Championships Jack Lincecum 8. R-V -66 60.8 72.5 80 87.5 55 62.5 -65 107.5 115 -120 265 285.58
03/01/2020 10th Annual Ryan Moore New England States High School Championships Jenny Wang 1. R-V -47 46.6 80 85 -90 55 57.5 60 107.5 112.5 -117.5 257.5 510.68
03/01/2020 10th Annual Ryan Moore New England States High School Championships Tin Nguyen 4. R-V -83 82.4 170 180 -185 90 95 -97.5 170 180 190 465 445.45
03/01/2020 10th Annual Ryan Moore New England States High School Championships Matthew Gjanci 1. R-V -59 57.3 120 127.5 -130 75 80 82.5 180 190 -195 400 500.15
03/01/2020 10th Annual Ryan Moore New England States High School Championships Jason Gao 5. R-V -59 54.2 120 127.5 -135 70 75 -77.5 140 -150 -150 342.5 438.64
03/01/2020 10th Annual Ryan Moore New England States High School Championships Hanyi Wang 2. R-V -52 51.9 67.5 72.5 -75 35 -37.5 -37.5 95 100 -105 207.5 381.39
03/01/2020 10th Annual Ryan Moore New England States High School Championships Anna Zuniga 1. R-JV -63 60.8 62.5 67.5 72.5 32.5 35 -40 87.5 95 102.5 210 361.67
03/01/2020 10th Annual Ryan Moore New England States High School Championships Gwen Trueblood 2. R-JV -72 69.7 75 80 82.5 37.5 40 45 75 82.5 -85 210 344.01
02/08/2020 Wolfpack High School Open Geoffrey Zou 2. R-HS -53 50.7 75 80 -85 -50 52.5 -57.5 85 92.5 100 232.5 290.77
02/08/2020 Wolfpack High School Open Julia Vekiarides 2. R-HS -57 53.9 50 -55 57.5 27.5 -32.5 -32.5 60 -62.5 -62.5 145 252.22
02/08/2020 Wolfpack High School Open Hanyi Wang 1. R-HS -57 53.7 65 72.5 -77.5 32.5 -37.5 -37.5 85 92.5 97.5 202.5 365.93
02/08/2020 Wolfpack High School Open Anna Zuniga 1. R-HS -63 63 60 65 70 -30 -32.5 32.5 85 92.5 97.5 200 339.07
02/08/2020 Wolfpack High School Open Rujal Chitrakar 1. R-HS -93 89.4 102.5 112.5 115 50 -57.5 -57.5 135 145 155 320 263.00
02/08/2020 Wolfpack High School Open Crystal Liu 1. R-HS -84 82.2 97.5 105 110 37.5 42.5 45 120 130 135 290 448.39
02/08/2020 Wolfpack High School Open Samuel Sullivan 1. R-HS -120 114.3 135 142.5 145 72.5 77.5 -80 177.5 187.5 -195 410 305.49
02/08/2020 Wolfpack High School Open Bentley Huang 1. R-HS -53 51.7 90 97.5 102.5 50 -55 -55 100 110 -115 262.5 332.29
01/19/2020 7th Annual St. John's High School Classic Hanyi Wang 0. R-HS -57 54.6 55 65 70 -30 32.5 -35 72.5 80 87.5 190 338.99
01/19/2020 7th Annual St. John's High School Classic Jason Gao 0. R-V -59 54.7 115 122.5 -130 67.5 72.5 75 135 142.5 150 347.5 442.36
01/19/2020 7th Annual St. John's High School Classic Crystal Liu 0. R-HS -84 82.2 -87.5 87.5 105 35 37.5 42.5 112.5 122.5 -132.5 270 417.81
01/19/2020 7th Annual St. John's High School Classic Samuel Sullivan 0. R-V -120 114.8 125 135 140 75 -80 -80 170 180 187.5 402.5 297.51
01/19/2020 7th Annual St. John's High School Classic Tin Nguyen 0. R-V -83 80.9 -162.5 177.5 -182.5 -85 92.5 95 167.5 170 180 452.5 437.08
01/19/2020 7th Annual St. John's High School Classic Matthew Gjanci 0. R-V -59 58 115 122.5 -130 -72.5 77.5 -82.5 162.5 172.5 182.5 382.5 469.31
01/19/2020 7th Annual St. John's High School Classic Jenny Wang 0. R-HS -52 50.8 77.5 82.5 90 52.5 57.5 60 107.5 112.5 117.5 267.5 508.16
03/28/2019 2019 High School Nationals Lily Tran 1. R-V -52 51.9 112.5 -117.5 117.5 45 47.5 50 122.5 132.5 -140 300 568.54
02/09/2019 6th Annual High School Elite Cup Grace Lei 1. R-JV -52 50.8 65 75 -77.5 27.5 30 35 75 85 95 205 380.03
02/09/2019 6th Annual High School Elite Cup Desmond Connelly 3. R-JV -120 111 -80 85 -95 57.5 62.5 -67.5 112.5 122.5 -137.5 270 176.14
02/09/2019 6th Annual High School Elite Cup Crystal Liu 1. R-V -84 77.1 70 -77.5 30 35 -40 92.5 100 110 215 340.57
02/09/2019 6th Annual High School Elite Cup Kyra Lally 1. R-JV -63 59.4 50 57.5 -62.5 27.5 32.5 35 67.5 77.5 82.5 175 300.49
02/09/2019 6th Annual High School Elite Cup Samuel Sullivan 2. R-JV -120 114.7 82.5 92.5 102.5 60 -67.5 67.5 137.5 -157.5 157.5 327.5 226.44
02/09/2019 6th Annual High School Elite Cup Matthew Gjanci 1. R-V -53 52.1 85 95 -97.5 65 70 -77.5 137.5 147.5 -152.5 312.5 408.60
02/09/2019 6th Annual High School Elite Cup Jenny Wang 1. R-JV -47 46.3 60 -65 40 42.5 -45 75 85 95 197.5 380.61
02/09/2019 6th Annual High School Elite Cup Judy Wang 1. R-V -72 70.2 -95 102.5 107.5 37.5 40 42.5 107.5 110 115 265 434.94